Aviation Digital Data Service (ADDS)

Output produced by METARs form (2245 UTC 23 March 2019)
found at http://www.aviationweather.gov/metar/data/
 
Forecast for: MHLM (LA MESA/PEDRO S , HN)
Text: TAF MHLM 232230Z 2400/2424 33006KT 9999 FEW028 TX31/2420Z TN17/2412Z
Forecast period: 0000 to 0400 UTC 24 March 2019
Forecast type: FROM: standard forecast or significant change
Winds: from the NNW (330 degrees) at 7 MPH (6 knots; 3.1 m/s)
Visibility: 6 or more miles 10+ km)
Ceiling: at least 12,000 feet AGL
Clouds: few clouds at 2800 feet AGL
Weather: no significant weather forecast for this period
Text: BECMG 2404/2406 21003KT
Forecast period: 0400 to 1800 UTC 24 March 2019
Forecast type: BECOMING: Conditions expected to become as follows by 0600 UTC 24 March 2019
Winds: from the SSW (210 degrees) at 3 MPH (3 knots; 1.5 m/s)
Visibility: 6 or more miles 10+ km)
Ceiling: at least 12,000 feet AGL
Clouds: few clouds at 2800 feet AGL
Weather: no significant weather forecast for this period
Text: BECMG 2418/2420 02012KT
Forecast period: 1800 UTC 24 March 2019 to 0000 UTC 25 March 2019
Forecast type: BECOMING: Conditions expected to become as follows by 2000 UTC 24 March 2019
Winds: from the NNE (20 degrees) at 14 MPH (12 knots; 6.2 m/s)
Visibility: 6 or more miles 10+ km)
Ceiling: at least 12,000 feet AGL
Clouds: few clouds at 2800 feet AGL
Weather: no significant weather forecast for this period